createdAt,value
2022-10-09T00:03:34.572Z,0.50
2022-10-09T00:15:27.615Z,0.50
2022-10-09T00:16:41.779Z,1.00
2022-10-09T00:28:43.120Z,0.00
2022-10-09T00:37:55.072Z,0.50
2022-10-09T00:52:37.351Z,1.50
2022-10-09T01:33:07.141Z,0.00
2022-10-09T01:37:00.321Z,0.50
2022-10-09T01:38:04.115Z,1.00
2022-10-09T01:39:08.639Z,0.50
2022-10-09T01:41:48.810Z,1.00
2022-10-09T01:44:13.031Z,2.50
2022-10-09T01:45:16.866Z,1.50
2022-10-09T01:46:28.052Z,0.50
2022-10-09T01:47:31.834Z,0.50
2022-10-09T01:48:50.374Z,0.50
2022-10-09T01:51:14.191Z,0.00
2022-10-09T01:53:39.892Z,0.50
2022-10-09T01:54:43.765Z,0.50
2022-10-09T01:57:08.353Z,0.50
2022-10-09T02:02:22.623Z,0.00
2022-10-09T02:03:41.307Z,1.00
2022-10-09T02:04:53.671Z,0.50
2022-10-09T02:05:57.349Z,0.00
2022-10-09T02:07:02.688Z,1.50
2022-10-09T02:08:06.064Z,3.00
2022-10-09T02:09:10.078Z,1.50
2022-10-09T02:10:13.787Z,0.50
2022-10-09T02:14:00.072Z,1.00
2022-10-09T02:15:23.824Z,1.50
2022-10-09T02:16:27.859Z,1.50
2022-10-09T02:17:32.972Z,1.00
2022-10-09T02:19:57.347Z,1.00
2022-10-09T02:21:01.254Z,0.00
2022-10-09T02:22:07.670Z,0.00
2022-10-09T02:23:11.309Z,0.00
2022-10-09T02:24:15.508Z,1.00
2022-10-09T02:25:18.686Z,1.50
2022-10-09T02:26:21.980Z,1.50
2022-10-09T02:27:33.654Z,1.50
2022-10-09T02:28:45.070Z,1.50
2022-10-09T02:29:45.239Z,1.50
2022-10-09T02:30:49.089Z,1.00
2022-10-09T02:31:59.544Z,0.00
2022-10-09T02:33:02.978Z,0.50
2022-10-09T02:34:06.772Z,1.00
2022-10-09T02:35:09.883Z,1.50
2022-10-09T02:36:14.158Z,1.50
2022-10-09T02:39:49.507Z,3.50
2022-10-09T02:40:53.539Z,1.50
2022-10-09T02:41:57.722Z,1.75
2022-10-09T02:43:02.126Z,0.50
2022-10-09T02:44:06.951Z,0.75
2022-10-09T02:45:10.653Z,1.00
2022-10-09T02:46:14.607Z,0.00
2022-10-09T02:47:18.162Z,1.50
2022-10-09T02:48:22.433Z,2.00
2022-10-09T02:49:26.755Z,1.00
2022-10-09T02:50:30.352Z,0.50
2022-10-09T02:51:34.468Z,0.00
2022-10-09T02:52:38.453Z,0.50
2022-10-09T02:55:03.082Z,0.50
2022-10-09T02:56:06.654Z,1.00
2022-10-09T02:57:10.246Z,1.50
2022-10-09T02:59:38.085Z,1.00
2022-10-09T03:02:06.977Z,0.50
2022-10-09T03:03:17.445Z,0.00
2022-10-09T03:04:22.035Z,0.50
2022-10-09T03:05:26.148Z,1.00
2022-10-09T03:06:35.037Z,2.00
2022-10-09T03:07:38.146Z,1.50
2022-10-09T03:08:42.242Z,0.00
2022-10-09T03:09:45.938Z,0.00
2022-10-09T03:10:49.953Z,0.00
2022-10-09T03:11:53.428Z,0.50
2022-10-09T03:12:57.896Z,0.50
2022-10-09T03:14:01.141Z,0.50
2022-10-09T03:15:06.150Z,0.50
2022-10-09T03:16:12.994Z,0.75
2022-10-09T03:17:21.044Z,1.50
2022-10-09T03:18:24.824Z,0.50
2022-10-09T03:19:34.521Z,1.50
2022-10-09T03:20:48.028Z,1.00
2022-10-09T03:21:54.291Z,1.00
2022-10-09T03:22:57.835Z,0.50
2022-10-09T03:24:02.230Z,0.00
2022-10-09T03:25:06.941Z,0.50
2022-10-09T03:26:10.642Z,0.75
2022-10-09T03:27:15.967Z,0.50
2022-10-09T03:28:20.208Z,2.50
2022-10-09T03:29:23.869Z,3.00
2022-10-09T03:30:28.074Z,1.75
2022-10-09T03:31:51.837Z,0.50
2022-10-09T03:32:36.999Z,1.00
2022-10-09T03:33:40.587Z,0.00
2022-10-09T03:34:44.491Z,0.00
2022-10-09T03:35:48.232Z,0.50
2022-10-09T03:36:53.407Z,1.00
2022-10-09T03:38:03.810Z,1.50
2022-10-09T03:39:08.804Z,0.50
2022-10-09T03:40:12.387Z,0.50
2022-10-09T03:41:16.293Z,1.75
2022-10-09T03:42:19.671Z,1.00
2022-10-09T03:43:23.559Z,0.00
2022-10-09T03:44:27.052Z,0.25
2022-10-09T03:45:30.853Z,0.50
2022-10-09T03:46:34.683Z,1.00
2022-10-09T03:47:38.561Z,1.00
2022-10-09T03:48:48.114Z,1.00
2022-10-09T03:49:51.380Z,1.00
2022-10-09T03:50:58.127Z,1.50
2022-10-09T03:52:02.324Z,1.50
2022-10-09T03:53:07.147Z,2.00
2022-10-09T03:54:11.052Z,1.50
2022-10-09T03:55:16.085Z,0.50
2022-10-09T03:56:19.769Z,1.00
2022-10-09T03:57:23.884Z,1.00
2022-10-09T03:58:27.264Z,0.50
2022-10-09T03:59:31.259Z,2.25
2022-10-09T04:00:35.659Z,1.00
2022-10-09T04:01:40.763Z,1.50
2022-10-09T04:02:44.327Z,2.50
2022-10-09T04:03:48.700Z,3.00
2022-10-09T04:04:52.507Z,3.00
2022-10-09T04:05:56.599Z,1.00
2022-10-09T04:07:00.933Z,1.50
2022-10-09T04:08:04.386Z,0.50
2022-10-09T04:09:14.132Z,0.00
2022-10-09T04:10:17.947Z,2.00
2022-10-09T04:11:22.973Z,1.00
2022-10-09T04:12:26.849Z,1.50
2022-10-09T04:14:51.643Z,1.50
2022-10-09T04:16:08.608Z,2.25
2022-10-09T04:17:25.248Z,1.50
2022-10-09T04:18:28.633Z,0.50
2022-10-09T04:19:32.426Z,2.25
2022-10-09T04:20:35.919Z,1.00
2022-10-09T04:21:39.298Z,1.00
2022-10-09T04:22:42.998Z,1.00
2022-10-09T04:23:46.801Z,2.75
2022-10-09T04:24:50.077Z,1.75
2022-10-09T04:25:54.078Z,1.00
2022-10-09T04:26:57.978Z,1.50
2022-10-09T04:28:01.771Z,0.50
2022-10-09T04:29:05.569Z,0.00
2022-10-09T04:30:09.571Z,0.00
2022-10-09T04:31:13.805Z,0.50
2022-10-09T04:32:19.645Z,0.50
2022-10-09T04:33:23.419Z,0.00
2022-10-09T04:34:27.214Z,0.50
2022-10-09T04:35:31.311Z,0.50
2022-10-09T04:36:35.321Z,0.00
2022-10-09T04:37:41.156Z,1.25
2022-10-09T04:38:44.773Z,1.00
2022-10-09T04:39:55.480Z,0.50
2022-10-09T04:40:59.309Z,1.50
2022-10-09T04:42:03.311Z,0.00
2022-10-09T04:43:07.219Z,1.50
2022-10-09T04:44:11.416Z,1.00
2022-10-09T04:45:15.314Z,0.00
2022-10-09T04:46:19.186Z,0.75
2022-10-09T04:47:22.903Z,2.00
2022-10-09T04:48:33.267Z,1.00
2022-10-09T04:49:36.857Z,0.50
2022-10-09T04:50:40.536Z,1.50
2022-10-09T04:51:44.245Z,1.00
2022-10-09T04:52:50.619Z,0.00
2022-10-09T04:54:00.405Z,1.00
2022-10-09T04:55:01.145Z,2.00
2022-10-09T04:56:04.853Z,2.00
2022-10-09T04:57:08.712Z,0.75
2022-10-09T04:58:12.438Z,0.50
2022-10-09T04:59:15.926Z,1.00
2022-10-09T05:00:19.632Z,0.40
2022-10-09T05:01:23.525Z,1.25
2022-10-09T05:02:27.286Z,1.50
2022-10-09T05:03:30.909Z,2.00
2022-10-09T05:04:34.295Z,1.00
2022-10-09T05:05:38.403Z,0.50
2022-10-09T05:06:42.328Z,1.50
2022-10-09T05:07:45.893Z,1.00
2022-10-09T05:08:49.785Z,1.00
2022-10-09T05:09:56.926Z,1.50
2022-10-09T05:11:00.249Z,2.00
2022-10-09T05:12:05.179Z,1.50
2022-10-09T05:13:09.381Z,1.50
2022-10-09T05:14:12.863Z,1.00
2022-10-09T05:15:19.017Z,1.00
2022-10-09T05:16:23.166Z,2.25
2022-10-09T05:17:27.478Z,2.00
2022-10-09T05:18:30.846Z,2.00
2022-10-09T05:19:34.512Z,2.75
2022-10-09T05:20:38.921Z,2.00
2022-10-09T05:21:42.732Z,1.25
2022-10-09T05:22:46.986Z,2.00
2022-10-09T05:23:51.252Z,2.50
2022-10-09T05:24:56.167Z,3.50
2022-10-09T05:26:00.056Z,2.00
2022-10-09T05:27:04.470Z,2.50
2022-10-09T05:28:10.235Z,1.50
2022-10-09T05:29:13.804Z,1.00
2022-10-09T05:30:17.189Z,1.25
2022-10-09T05:31:24.726Z,1.50
2022-10-09T05:32:27.861Z,3.00
2022-10-09T05:33:31.333Z,3.25
2022-10-09T05:34:35.131Z,0.50
2022-10-09T05:35:39.445Z,0.50
2022-10-09T05:36:43.352Z,1.00
2022-10-09T05:37:47.231Z,1.00
2022-10-09T05:38:52.569Z,2.00
2022-10-09T05:39:56.059Z,1.50
2022-10-09T05:41:01.593Z,1.25
2022-10-09T05:42:08.171Z,1.75
2022-10-09T05:43:11.465Z,2.00
2022-10-09T05:44:15.748Z,1.50
2022-10-09T05:45:23.029Z,1.00
2022-10-09T05:46:29.791Z,0.50
2022-10-09T05:47:36.867Z,0.50
2022-10-09T05:48:40.254Z,0.60
2022-10-09T05:49:43.640Z,0.50
2022-10-09T05:50:51.218Z,1.25
2022-10-09T05:51:54.823Z,2.00
2022-10-09T05:52:58.451Z,1.00
2022-10-09T05:54:02.813Z,2.50
2022-10-09T05:55:21.459Z,3.00
2022-10-09T05:56:25.341Z,1.00
2022-10-09T05:57:29.062Z,2.00
2022-10-09T05:58:38.562Z,1.75
2022-10-09T05:59:41.977Z,2.00
2022-10-09T06:00:48.740Z,1.50
2022-10-09T06:01:52.499Z,1.00
2022-10-09T06:02:57.242Z,1.00
2022-10-09T06:04:01.657Z,1.00
2022-10-09T06:05:09.897Z,1.00
2022-10-09T06:06:13.649Z,1.50
2022-10-09T06:07:18.989Z,1.50
2022-10-09T06:08:22.481Z,1.25
2022-10-09T06:09:26.279Z,1.00
2022-10-09T06:11:54.368Z,2.50
2022-10-09T06:12:58.348Z,1.25
2022-10-09T06:14:08.429Z,2.00
2022-10-09T06:15:11.879Z,1.75
2022-10-09T06:16:15.705Z,1.50
2022-10-09T06:17:19.056Z,2.00
2022-10-09T06:18:24.498Z,1.25
2022-10-09T06:19:28.204Z,1.25
2022-10-09T06:20:31.792Z,1.50
2022-10-09T06:21:35.854Z,2.00
2022-10-09T06:22:46.314Z,1.50
2022-10-09T06:24:06.470Z,1.50
2022-10-09T06:25:10.321Z,0.75
2022-10-09T06:26:13.556Z,1.00
2022-10-09T06:27:18.727Z,0.75
2022-10-09T06:28:30.639Z,1.75
2022-10-09T06:29:34.313Z,2.00
2022-10-09T06:30:38.882Z,2.00
2022-10-09T06:31:42.513Z,1.00
2022-10-09T06:32:47.454Z,1.50
2022-10-09T06:33:51.583Z,2.25
2022-10-09T06:34:55.445Z,1.50
2022-10-09T06:36:07.063Z,0.00
2022-10-09T06:37:03.889Z,0.50
2022-10-09T06:38:07.431Z,2.00
2022-10-09T06:39:13.543Z,2.00
2022-10-09T06:40:19.337Z,2.50
2022-10-09T06:41:27.634Z,1.50
2022-10-09T06:42:32.190Z,1.25
2022-10-09T06:43:35.545Z,2.00
2022-10-09T06:44:39.436Z,1.75
2022-10-09T06:45:44.314Z,2.75
2022-10-09T06:46:48.668Z,5.00
2022-10-09T06:47:53.386Z,6.25
2022-10-09T06:48:57.685Z,6.00
2022-10-09T06:50:09.097Z,5.00
2022-10-09T06:51:12.252Z,3.00
2022-10-09T06:52:15.843Z,1.50
2022-10-09T06:53:23.319Z,1.00
2022-10-09T06:54:27.141Z,1.00
2022-10-09T06:55:31.245Z,2.00
2022-10-09T06:56:34.939Z,2.00
2022-10-09T06:57:43.642Z,2.00
2022-10-09T06:58:47.333Z,1.50
2022-10-09T06:59:58.285Z,3.00
2022-10-09T07:01:02.469Z,3.75
2022-10-09T07:02:06.276Z,2.00
2022-10-09T07:03:10.366Z,2.00
2022-10-09T07:04:14.084Z,0.50
2022-10-09T07:05:18.292Z,1.50
2022-10-09T07:06:21.776Z,1.50
2022-10-09T07:07:25.687Z,1.50
2022-10-09T07:08:29.679Z,2.00
2022-10-09T07:09:35.195Z,2.50
2022-10-09T07:10:39.325Z,2.50
2022-10-09T07:11:44.240Z,4.50
2022-10-09T07:12:48.278Z,2.75
2022-10-09T07:13:52.661Z,0.50
2022-10-09T07:14:59.246Z,0.75
2022-10-09T07:16:04.998Z,1.00
2022-10-09T07:17:08.191Z,2.00
2022-10-09T07:18:17.127Z,1.75
2022-10-09T07:19:21.163Z,1.50
2022-10-09T07:20:25.162Z,1.00
2022-10-09T07:21:32.127Z,2.00
2022-10-09T07:22:36.034Z,2.75
2022-10-09T07:23:39.407Z,2.00
2022-10-09T07:24:43.106Z,1.00
2022-10-09T07:25:48.182Z,1.00
2022-10-09T07:26:52.348Z,1.50
2022-10-09T07:27:58.330Z,2.00
2022-10-09T07:29:01.974Z,2.25
2022-10-09T07:30:07.641Z,2.00
2022-10-09T07:31:11.462Z,1.75
2022-10-09T07:32:15.013Z,1.00
2022-10-09T07:33:18.806Z,1.00
2022-10-09T07:34:22.190Z,1.00
2022-10-09T07:35:27.224Z,1.50
2022-10-09T07:36:31.257Z,2.50
2022-10-09T07:37:37.131Z,3.50
2022-10-09T07:38:40.871Z,6.00
2022-10-09T07:39:45.134Z,5.00
2022-10-09T07:40:49.474Z,3.00
2022-10-09T07:41:52.859Z,3.50
2022-10-09T07:42:58.107Z,0.50
2022-10-09T07:44:01.799Z,1.50
2022-10-09T07:45:05.384Z,2.50
2022-10-09T07:46:12.121Z,1.50
2022-10-09T07:47:15.628Z,2.50
2022-10-09T07:48:30.291Z,3.50
2022-10-09T07:49:36.612Z,3.00
2022-10-09T07:50:39.824Z,2.75
2022-10-09T07:51:43.549Z,2.50
2022-10-09T07:52:47.316Z,3.00
2022-10-09T07:53:51.308Z,1.00
2022-10-09T07:54:55.080Z,2.00
2022-10-09T07:56:00.130Z,3.25
2022-10-09T07:57:03.536Z,2.00
2022-10-09T07:58:07.222Z,3.00
2022-10-09T07:59:10.701Z,2.50
2022-10-09T08:00:14.083Z,2.00
2022-10-09T08:01:20.157Z,2.00
2022-10-09T08:02:22.650Z,4.50
2022-10-09T08:03:26.027Z,3.00
2022-10-09T08:04:29.673Z,1.50
2022-10-09T08:05:33.029Z,3.25
2022-10-09T08:06:36.671Z,3.00
2022-10-09T08:07:47.854Z,4.00
2022-10-09T08:08:51.422Z,4.00
2022-10-09T08:09:55.114Z,2.75
2022-10-09T08:10:58.910Z,4.25
2022-10-09T08:12:04.551Z,5.00
2022-10-09T08:13:10.109Z,4.25
2022-10-09T08:14:18.802Z,5.50
2022-10-09T08:15:19.022Z,3.50
2022-10-09T08:16:22.418Z,4.75
2022-10-09T08:17:26.399Z,5.00
2022-10-09T08:18:30.298Z,4.00
2022-10-09T08:19:33.991Z,4.25
2022-10-09T08:20:37.674Z,4.00
2022-10-09T08:21:42.502Z,3.50
2022-10-09T08:22:46.657Z,5.00
2022-10-09T08:23:52.623Z,2.75
2022-10-09T08:24:56.565Z,3.00
2022-10-09T08:26:01.590Z,1.00
2022-10-09T08:27:04.961Z,2.50
2022-10-09T08:28:08.934Z,4.00
2022-10-09T08:29:12.656Z,4.00
2022-10-09T08:30:16.774Z,2.50
2022-10-09T08:31:20.620Z,3.50
2022-10-09T08:32:24.259Z,4.50
2022-10-09T08:33:27.837Z,4.00
2022-10-09T08:34:32.058Z,5.25
2022-10-09T08:35:36.285Z,1.00
2022-10-09T08:36:40.044Z,1.00
2022-10-09T08:37:43.963Z,2.00
2022-10-09T08:38:48.345Z,2.50
2022-10-09T08:39:52.082Z,4.50
2022-10-09T08:40:58.204Z,3.50
2022-10-09T08:42:02.700Z,2.00
2022-10-09T08:43:05.503Z,2.00
2022-10-09T08:44:09.290Z,4.00
2022-10-09T08:45:14.927Z,3.50
2022-10-09T08:46:20.718Z,3.50
2022-10-09T08:47:25.162Z,3.50
2022-10-09T08:48:28.465Z,4.50
2022-10-09T08:49:32.253Z,2.75
2022-10-09T08:50:36.269Z,4.00
2022-10-09T08:51:40.677Z,5.50
2022-10-09T08:52:49.078Z,6.00
2022-10-09T08:53:49.703Z,6.25
2022-10-09T08:54:54.033Z,2.75
2022-10-09T08:55:58.118Z,4.00
2022-10-09T08:57:01.415Z,4.00
2022-10-09T08:58:10.522Z,4.00
2022-10-09T08:59:14.110Z,2.75
2022-10-09T09:00:18.012Z,3.50
2022-10-09T09:01:23.947Z,5.00
2022-10-09T09:02:37.977Z,6.00
2022-10-09T09:03:42.551Z,5.50
2022-10-09T09:04:49.019Z,4.75
2022-10-09T09:05:54.298Z,4.00
2022-10-09T09:06:57.991Z,5.50
2022-10-09T09:08:05.075Z,5.00
2022-10-09T09:09:09.370Z,5.50
2022-10-09T09:10:20.748Z,6.25
2022-10-09T09:11:25.621Z,7.50
2022-10-09T09:12:34.092Z,7.00
2022-10-09T09:13:37.561Z,7.00
2022-10-09T09:14:41.044Z,5.00
2022-10-09T09:15:49.530Z,5.00
2022-10-09T09:18:13.939Z,5.00
2022-10-09T09:19:34.066Z,7.25
2022-10-09T09:20:39.366Z,8.75
2022-10-09T09:23:14.830Z,7.00
2022-10-09T09:24:18.720Z,4.75
2022-10-09T09:25:22.495Z,4.00
2022-10-09T09:26:25.991Z,4.25
2022-10-09T09:27:30.206Z,3.50
2022-10-09T09:28:34.159Z,4.25
2022-10-09T09:29:40.041Z,4.00
2022-10-09T09:30:45.815Z,4.50
2022-10-09T09:31:49.478Z,4.50
2022-10-09T09:32:53.571Z,4.25
2022-10-09T09:34:02.497Z,3.25
2022-10-09T09:35:10.897Z,6.00
2022-10-09T09:36:14.590Z,4.00
2022-10-09T09:37:19.524Z,6.00
2022-10-09T09:38:22.976Z,6.50
2022-10-09T09:40:37.730Z,6.25
2022-10-09T09:43:09.638Z,5.00
2022-10-09T09:44:18.558Z,3.50
2022-10-09T09:45:23.166Z,3.50
2022-10-09T09:46:26.808Z,4.00
2022-10-09T09:47:30.981Z,2.25
2022-10-09T09:48:34.442Z,3.00
2022-10-09T09:49:39.046Z,3.00
2022-10-09T09:50:50.446Z,2.00
2022-10-09T09:51:48.287Z,1.50
2022-10-09T09:54:13.315Z,3.00
2022-10-09T09:55:16.467Z,2.00
2022-10-09T09:56:19.859Z,1.50
2022-10-09T09:57:24.736Z,3.00
2022-10-09T09:58:28.155Z,3.25
2022-10-09T09:59:34.828Z,3.25
2022-10-09T10:00:38.264Z,5.75
2022-10-09T10:01:41.888Z,3.50
2022-10-09T10:02:45.554Z,2.25
2022-10-09T10:03:49.748Z,1.50
2022-10-09T10:04:55.942Z,2.50
2022-10-09T10:05:59.551Z,4.25
2022-10-09T10:07:03.650Z,5.50
2022-10-09T10:08:08.894Z,4.00
2022-10-09T10:09:12.574Z,4.00
2022-10-09T10:10:20.983Z,3.50
2022-10-09T10:11:22.227Z,1.75
2022-10-09T10:12:25.718Z,2.50
2022-10-09T10:13:30.428Z,4.50
2022-10-09T10:14:35.051Z,3.00
2022-10-09T10:15:44.092Z,2.00
2022-10-09T10:16:47.972Z,2.25
2022-10-09T10:17:55.133Z,2.50
2022-10-09T10:18:59.697Z,4.00
2022-10-09T10:20:04.274Z,5.00
2022-10-09T10:21:07.647Z,5.50
2022-10-09T10:22:11.533Z,5.50
2022-10-09T10:23:15.508Z,4.50
2022-10-09T10:24:19.767Z,4.50
2022-10-09T10:25:22.951Z,5.00
2022-10-09T10:26:26.270Z,5.00
2022-10-09T10:27:29.507Z,3.00
2022-10-09T10:28:32.891Z,1.00
2022-10-09T10:29:36.408Z,1.00
2022-10-09T10:30:41.415Z,1.75
2022-10-09T10:31:45.291Z,2.25
2022-10-09T10:32:50.644Z,2.50
2022-10-09T10:33:54.532Z,3.00
2022-10-09T10:34:58.948Z,4.00
2022-10-09T10:36:02.439Z,3.00
2022-10-09T10:37:05.613Z,5.75
2022-10-09T10:38:16.177Z,5.75
2022-10-09T10:39:20.175Z,4.00
2022-10-09T10:40:23.267Z,3.50
2022-10-09T10:41:27.485Z,4.25
2022-10-09T10:42:32.167Z,4.00
2022-10-09T10:44:56.979Z,4.00
2022-10-09T10:46:02.646Z,3.50
2022-10-09T10:47:06.212Z,2.50
2022-10-09T10:48:11.552Z,4.50
2022-10-09T10:49:19.211Z,4.00
2022-10-09T10:50:22.713Z,3.50
2022-10-09T10:51:27.028Z,5.50
2022-10-09T10:52:30.924Z,5.00
2022-10-09T10:53:34.642Z,3.00
2022-10-09T10:54:38.300Z,2.50
2022-10-09T10:55:42.113Z,2.00
2022-10-09T10:56:50.712Z,1.00
2022-10-09T10:57:54.506Z,2.00
2022-10-09T10:58:58.926Z,3.00
2022-10-09T11:00:02.515Z,1.50
2022-10-09T11:01:06.415Z,3.00
2022-10-09T11:02:09.899Z,3.50
2022-10-09T11:03:14.477Z,3.50
2022-10-09T11:04:18.206Z,1.75
2022-10-09T11:05:21.896Z,1.50
2022-10-09T11:06:27.523Z,2.00
2022-10-09T11:07:32.291Z,3.00
2022-10-09T11:08:35.779Z,1.00
2022-10-09T11:09:39.651Z,2.50
2022-10-09T11:10:44.983Z,2.00
2022-10-09T11:11:48.321Z,1.00
2022-10-09T11:12:52.272Z,2.50
2022-10-09T11:13:56.890Z,2.00
2022-10-09T11:15:03.854Z,1.00
2022-10-09T11:16:06.972Z,2.25
2022-10-09T11:17:14.424Z,4.00
2022-10-09T11:18:18.791Z,2.75
2022-10-09T11:19:22.631Z,3.75
2022-10-09T11:20:26.424Z,2.00
2022-10-09T11:21:30.002Z,2.00
2022-10-09T11:22:34.618Z,2.75
2022-10-09T11:23:39.514Z,3.00
2022-10-09T11:24:42.936Z,3.00
2022-10-09T11:25:49.508Z,3.00
2022-10-09T11:29:35.293Z,4.00
2022-10-09T11:30:38.677Z,5.00
2022-10-09T11:31:50.250Z,4.00
2022-10-09T11:32:53.830Z,2.50
2022-10-09T11:35:17.712Z,2.75
2022-10-09T11:36:22.737Z,3.00
2022-10-09T11:37:27.569Z,4.00
2022-10-09T11:38:31.057Z,5.00
2022-10-09T11:39:34.655Z,4.00
2022-10-09T11:40:38.014Z,2.50
2022-10-09T11:41:42.655Z,2.00
2022-10-09T11:42:46.244Z,3.75
2022-10-09T11:43:55.199Z,3.00
2022-10-09T11:47:39.713Z,4.50
2022-10-09T11:48:42.946Z,4.25
2022-10-09T11:49:46.481Z,4.00
2022-10-09T11:50:50.191Z,5.00
2022-10-09T11:51:53.591Z,4.50
2022-10-09T11:52:57.468Z,3.25
2022-10-09T11:54:00.959Z,3.50
2022-10-09T11:55:04.562Z,3.75
2022-10-09T11:56:08.569Z,2.25
2022-10-09T11:57:15.337Z,4.00
2022-10-09T11:58:16.951Z,3.50
2022-10-09T11:59:20.861Z,3.00
2022-10-09T12:00:24.250Z,2.75
2022-10-09T12:01:28.252Z,4.50
2022-10-09T12:02:32.405Z,5.00
2022-10-09T12:03:36.775Z,5.00
2022-10-09T12:04:55.640Z,4.75
2022-10-09T12:05:44.567Z,4.50
2022-10-09T12:06:48.252Z,5.25
2022-10-09T12:07:52.090Z,4.75
2022-10-09T12:08:55.950Z,3.00
2022-10-09T12:09:59.955Z,2.75
2022-10-09T12:11:04.171Z,3.50
2022-10-09T12:12:08.373Z,3.50
2022-10-09T12:13:12.571Z,3.50
2022-10-09T12:14:20.111Z,3.00
2022-10-09T12:15:21.004Z,4.50
2022-10-09T12:16:26.698Z,6.25
2022-10-09T12:17:30.731Z,4.50
2022-10-09T12:18:34.245Z,6.00
2022-10-09T12:19:38.108Z,7.50
2022-10-09T12:20:41.909Z,5.00
2022-10-09T12:21:45.815Z,5.50
2022-10-09T12:23:13.783Z,5.50
2022-10-09T12:23:55.279Z,5.50
2022-10-09T12:24:59.250Z,5.50
2022-10-09T12:26:02.942Z,3.25
2022-10-09T12:27:07.043Z,3.00
2022-10-09T12:28:10.807Z,5.50
2022-10-09T12:29:14.554Z,4.00
2022-10-09T12:30:18.642Z,3.00
2022-10-09T12:31:22.413Z,4.00
2022-10-09T12:32:26.534Z,3.00
2022-10-09T12:33:30.448Z,5.50
2022-10-09T12:34:34.745Z,4.50
2022-10-09T12:35:38.664Z,2.40
2022-10-09T12:36:44.351Z,3.00
2022-10-09T12:37:47.503Z,4.33
2022-10-09T12:38:51.662Z,4.50
2022-10-09T12:39:56.704Z,3.00
2022-10-09T12:41:00.245Z,2.50
2022-10-09T12:42:03.662Z,4.50
2022-10-09T12:43:08.101Z,5.00
2022-10-09T12:44:11.688Z,3.50
2022-10-09T12:45:15.087Z,4.25
2022-10-09T12:46:18.903Z,3.25
2022-10-09T12:47:22.870Z,3.00
2022-10-09T12:48:26.048Z,3.25
2022-10-09T12:49:30.247Z,4.00
2022-10-09T12:50:34.447Z,2.75
2022-10-09T12:51:37.831Z,4.75
2022-10-09T12:52:41.438Z,6.50
2022-10-09T12:53:45.112Z,6.00
2022-10-09T12:54:48.821Z,5.50
2022-10-09T12:55:53.564Z,5.00
2022-10-09T12:56:57.952Z,4.50
2022-10-09T12:58:01.933Z,5.50
2022-10-09T12:59:05.337Z,5.00
2022-10-09T13:00:08.721Z,3.00
2022-10-09T13:01:12.303Z,4.50
2022-10-09T13:02:16.233Z,3.00
2022-10-09T13:03:20.928Z,3.25
2022-10-09T13:04:25.174Z,3.00
2022-10-09T13:05:28.613Z,3.50
2022-10-09T13:06:32.110Z,3.00
2022-10-09T13:07:35.382Z,3.00
2022-10-09T13:08:38.799Z,4.25
2022-10-09T13:09:42.580Z,3.75
2022-10-09T13:10:46.782Z,3.50
2022-10-09T13:11:50.258Z,2.50
2022-10-09T13:12:53.603Z,4.00
2022-10-09T13:13:57.258Z,4.00
2022-10-09T13:15:00.652Z,5.00
2022-10-09T13:16:04.035Z,4.50
2022-10-09T13:17:07.456Z,4.00
2022-10-09T13:18:11.001Z,4.25
2022-10-09T13:19:14.803Z,5.50
2022-10-09T13:20:18.130Z,5.50
2022-10-09T13:21:21.472Z,3.60
2022-10-09T13:22:25.884Z,4.00
2022-10-09T13:23:29.782Z,4.00
2022-10-09T13:24:33.472Z,4.00
2022-10-09T13:25:37.168Z,3.50
2022-10-09T13:26:43.427Z,5.50
2022-10-09T13:27:46.998Z,4.50
2022-10-09T13:28:51.318Z,4.50
2022-10-09T13:29:55.847Z,4.50
2022-10-09T13:30:59.274Z,4.50
2022-10-09T13:32:02.505Z,5.00
2022-10-09T13:33:06.125Z,4.50
2022-10-09T13:34:09.571Z,5.00
2022-10-09T13:35:13.193Z,5.00
2022-10-09T13:36:16.566Z,5.50
2022-10-09T13:37:20.357Z,4.00
2022-10-09T13:38:23.752Z,4.75
2022-10-09T13:39:27.559Z,6.00
2022-10-09T13:40:31.126Z,5.00
2022-10-09T13:41:34.656Z,5.00
2022-10-09T13:42:37.812Z,4.00
2022-10-09T13:43:40.911Z,3.50
2022-10-09T13:44:44.397Z,6.50
2022-10-09T13:45:49.660Z,8.50
2022-10-09T13:46:52.991Z,9.00
2022-10-09T13:47:57.091Z,6.00
2022-10-09T13:49:00.270Z,5.50
2022-10-09T13:50:03.991Z,8.00
2022-10-09T13:51:07.393Z,5.50
2022-10-09T13:52:10.738Z,5.50
2022-10-09T13:53:15.485Z,6.00
2022-10-09T13:54:18.952Z,8.50
2022-10-09T13:55:22.537Z,6.75
2022-10-09T13:56:26.263Z,4.50
2022-10-09T13:57:29.826Z,5.50
2022-10-09T13:58:33.411Z,7.50
2022-10-09T13:59:37.110Z,8.50
2022-10-09T14:00:40.491Z,8.00
2022-10-09T14:01:44.769Z,9.00
2022-10-09T14:02:48.411Z,6.00
2022-10-09T14:03:51.893Z,7.00
2022-10-09T14:04:55.881Z,6.00
2022-10-09T14:05:59.689Z,5.50
2022-10-09T14:07:03.281Z,6.50
2022-10-09T14:08:06.557Z,7.00
2022-10-09T14:09:10.695Z,5.00
2022-10-09T14:10:14.750Z,4.75
2022-10-09T14:11:18.256Z,7.50
2022-10-09T14:12:22.056Z,8.50
2022-10-09T14:13:25.640Z,7.00
2022-10-09T14:14:28.878Z,9.00
2022-10-09T14:15:32.722Z,8.50
2022-10-09T14:16:35.906Z,6.00
2022-10-09T14:17:39.080Z,4.00
2022-10-09T14:18:42.609Z,6.00
2022-10-09T14:19:46.679Z,7.00
2022-10-09T14:20:50.879Z,5.00
2022-10-09T14:21:54.484Z,4.75
2022-10-09T14:22:58.268Z,6.00
2022-10-09T14:24:02.172Z,4.75
2022-10-09T14:25:05.671Z,4.00
2022-10-09T14:26:09.254Z,4.50
2022-10-09T14:27:13.354Z,9.25
2022-10-09T14:28:16.717Z,10.00
2022-10-09T14:29:20.232Z,5.00
2022-10-09T14:30:24.033Z,4.00
2022-10-09T14:31:28.740Z,4.00
2022-10-09T14:32:32.745Z,3.25
2022-10-09T14:33:36.549Z,3.50
2022-10-09T14:34:39.938Z,5.00
2022-10-09T14:35:43.201Z,5.20
2022-10-09T14:36:46.528Z,5.00
2022-10-09T14:37:50.399Z,4.00
2022-10-09T14:38:53.802Z,5.00
2022-10-09T14:39:57.602Z,4.50
2022-10-09T14:41:01.121Z,3.25
2022-10-09T14:42:05.783Z,4.25
2022-10-09T14:43:09.278Z,4.50
2022-10-09T14:44:12.761Z,4.00
2022-10-09T14:45:16.174Z,4.20
2022-10-09T14:46:19.847Z,5.00
2022-10-09T14:47:23.446Z,6.50
2022-10-09T14:48:26.816Z,4.50
2022-10-09T14:49:30.241Z,5.00
2022-10-09T14:50:36.928Z,4.50
2022-10-09T14:51:40.465Z,3.50
2022-10-09T14:52:43.969Z,3.00
2022-10-09T14:53:47.535Z,4.50
2022-10-09T14:54:50.729Z,4.00
2022-10-09T14:55:58.336Z,5.00
2022-10-09T14:57:02.513Z,6.00
2022-10-09T14:58:05.693Z,3.50
2022-10-09T14:59:09.413Z,2.50
2022-10-09T15:00:12.972Z,3.50
2022-10-09T15:01:16.366Z,4.00
2022-10-09T15:02:19.963Z,4.50
2022-10-09T15:03:24.221Z,3.75
2022-10-09T15:04:27.554Z,7.50
2022-10-09T15:05:31.044Z,5.50
2022-10-09T15:06:34.370Z,4.75
2022-10-09T15:07:38.173Z,4.50
2022-10-09T15:08:41.556Z,5.00
2022-10-09T15:09:44.796Z,6.00
2022-10-09T15:10:48.531Z,7.00
2022-10-09T15:11:52.091Z,6.50
2022-10-09T15:12:55.664Z,5.25
2022-10-09T15:13:59.075Z,4.50
2022-10-09T15:15:02.853Z,3.00
2022-10-09T15:16:06.441Z,4.00
2022-10-09T15:17:10.231Z,4.00
2022-10-09T15:18:13.538Z,4.50
2022-10-09T15:19:16.959Z,2.00
2022-10-09T15:20:20.303Z,3.00
2022-10-09T15:21:24.081Z,3.00
2022-10-09T15:22:27.635Z,4.50
2022-10-09T15:23:31.050Z,6.50
2022-10-09T15:24:34.262Z,5.75
2022-10-09T15:25:37.749Z,5.00
2022-10-09T15:26:40.653Z,4.50
2022-10-09T15:27:44.217Z,4.50
2022-10-09T15:28:47.669Z,3.00
2022-10-09T15:29:51.925Z,3.00
2022-10-09T15:30:55.409Z,5.00
2022-10-09T15:31:59.208Z,5.50
2022-10-09T15:33:02.890Z,4.25
2022-10-09T15:34:06.581Z,4.00
2022-10-09T15:35:10.697Z,4.75
2022-10-09T15:36:14.903Z,7.00
2022-10-09T15:37:18.485Z,2.50
2022-10-09T15:38:22.378Z,3.25
2022-10-09T15:39:26.581Z,4.25
2022-10-09T15:40:29.977Z,5.50
2022-10-09T15:41:33.162Z,4.50
2022-10-09T15:42:36.543Z,3.00
2022-10-09T15:43:41.174Z,3.50
2022-10-09T15:44:44.742Z,3.50
2022-10-09T15:45:48.754Z,7.00
2022-10-09T15:46:52.866Z,7.25
2022-10-09T15:47:56.135Z,3.75
2022-10-09T15:48:59.331Z,4.50
2022-10-09T15:50:03.375Z,5.00
2022-10-09T15:51:07.249Z,6.00
2022-10-09T15:52:12.039Z,5.50
2022-10-09T15:53:14.926Z,3.00
2022-10-09T15:54:17.991Z,4.00
2022-10-09T15:55:21.512Z,5.00
2022-10-09T15:56:25.277Z,5.00
2022-10-09T15:57:30.491Z,4.00
2022-10-09T15:58:33.790Z,4.00
2022-10-09T15:59:36.752Z,3.50
2022-10-09T16:00:40.384Z,3.50
2022-10-09T16:01:43.951Z,5.00
2022-10-09T16:02:47.566Z,5.00
2022-10-09T16:03:51.538Z,4.50
2022-10-09T16:04:55.031Z,4.50
2022-10-09T16:05:59.045Z,3.00
2022-10-09T16:07:02.212Z,2.00
2022-10-09T16:08:05.603Z,3.00
2022-10-09T16:09:09.091Z,4.50
2022-10-09T16:10:12.486Z,2.00
2022-10-09T16:11:17.866Z,3.00
2022-10-09T16:12:20.246Z,3.25
2022-10-09T16:13:23.518Z,3.50
2022-10-09T16:14:26.737Z,4.00
2022-10-09T16:15:30.131Z,4.00
2022-10-09T16:16:33.519Z,2.50
2022-10-09T16:17:39.457Z,4.00
2022-10-09T16:18:43.262Z,5.50
2022-10-09T16:19:46.749Z,3.00
2022-10-09T16:20:50.545Z,3.50
2022-10-09T16:21:54.173Z,4.50
2022-10-09T16:22:57.950Z,4.75
2022-10-09T16:24:01.346Z,3.50
2022-10-09T16:25:05.361Z,2.00
2022-10-09T16:26:09.734Z,2.00
2022-10-09T16:27:13.929Z,2.25